Time;durP1;ratioP1;P1;durP2;ratioP2;P2;SDS_P1;SDS_P2;PMS_P1;PMS_P2;Temp;Humidity;BMP_temperature;BMP_pressure;BME280_temperature;BME280_humidity;BME280_pressure;Samples;Min_cycle;Max_cycle;Signal;HPM_P1;HPM_P2
2022/06/29 00:01:54;;;;;;;2.55;2.25;;;18.80;99.90;;;;;;5032012;28;20214;-68
2022/06/29 00:04:19;;;;;;;2.22;2.08;;;18.80;99.90;;;;;;5031703;28;20206;-68
2022/06/29 00:06:45;;;;;;;2.92;2.00;;;18.80;99.90;;;;;;5031874;28;20292;-68
2022/06/29 00:09:10;;;;;;;2.90;2.30;;;18.80;99.90;;;;;;5031803;28;20178;-68
2022/06/29 00:11:36;;;;;;;2.05;1.90;;;18.90;99.90;;;;;;5032004;28;20181;-68
2022/06/29 00:14:01;;;;;;;2.90;2.60;;;18.90;99.90;;;;;;5031360;28;20543;-69
2022/06/29 00:16:27;;;;;;;2.75;2.10;;;18.90;99.90;;;;;;5032077;28;20511;-69
2022/06/29 00:18:52;;;;;;;2.72;2.53;;;18.90;99.90;;;;;;4997365;28;20645;-69
2022/06/29 00:21:18;;;;;;;2.58;2.38;;;19.00;99.90;;;;;;5031608;28;20576;-69
2022/06/29 00:23:45;;;;;;;4.85;2.28;;;19.00;99.90;;;;;;5031600;28;20585;-69
2022/06/29 00:26:10;;;;;;;2.63;2.17;;;19.00;99.90;;;;;;5031845;28;20174;-69
2022/06/29 00:28:36;;;;;;;2.35;2.13;;;19.00;99.90;;;;;;5031363;28;20525;-69
2022/06/29 00:31:02;;;;;;;2.85;2.15;;;19.00;99.90;;;;;;5031833;28;20232;-69
2022/06/29 00:33:27;;;;;;;2.55;2.35;;;19.10;99.90;;;;;;5031596;28;20182;-69
2022/06/29 00:35:53;;;;;;;2.75;2.17;;;19.10;99.90;;;;;;5031880;28;20315;-69
2022/06/29 00:38:18;;;;;;;2.25;2.10;;;19.10;99.90;;;;;;5031333;28;20230;-69
2022/06/29 00:40:44;;;;;;;2.40;2.20;;;19.10;99.90;;;;;;5031518;28;20261;-68
2022/06/29 00:43:09;;;;;;;4.47;2.47;;;19.10;99.90;;;;;;5031138;28;20225;-69
2022/06/29 00:45:35;;;;;;;2.85;2.40;;;19.10;99.90;;;;;;5031485;28;20193;-70
2022/06/29 00:48:01;;;;;;;3.63;2.60;;;19.10;99.90;;;;;;5031460;28;20228;-69
2022/06/29 00:50:30;;;;;;;2.60;2.40;;;19.20;99.90;;;;;;5031152;28;20547;-69
2022/06/29 00:53:00;;;;;;;3.45;2.53;;;19.20;99.90;;;;;;5034336;28;20189;-69
2022/06/29 00:55:28;;;;;;;2.60;2.40;;;19.20;99.90;;;;;;5035532;28;20219;-69
2022/06/29 00:57:57;;;;;;;5.32;2.47;;;19.30;99.90;;;;;;5035474;28;20178;-69
2022/06/29 01:00:22;;;;;;;2.65;2.28;;;19.30;99.90;;;;;;5031964;28;20194;-69
2022/06/29 01:02:48;;;;;;;18.08;8.10;;;19.30;99.90;;;;;;5016013;28;20345;-69
2022/06/29 01:05:14;;;;;;;19.10;8.40;;;19.30;99.90;;;;;;5025038;28;20182;-69
2022/06/29 01:07:39;;;;;;;14.00;6.78;;;19.30;99.90;;;;;;5035308;28;20182;-69
2022/06/29 01:10:06;;;;;;;13.60;6.35;;;19.30;99.90;;;;;;5022767;28;20328;-69
2022/06/29 01:12:31;;;;;;;11.52;5.15;;;19.30;99.90;;;;;;5024891;28;20295;-69
2022/06/29 01:14:57;;;;;;;7.13;4.32;;;19.30;99.90;;;;;;5027000;28;20536;-69
2022/06/29 01:17:23;;;;;;;5.75;3.65;;;19.30;99.90;;;;;;5015268;28;20547;-69
2022/06/29 01:19:50;;;;;;;10.52;4.05;;;19.40;99.90;;;;;;5029841;28;20232;-69
2022/06/29 01:22:18;;;;;;;6.15;3.92;;;19.40;99.90;;;;;;5034005;28;20217;-69
2022/06/29 01:24:44;;;;;;;8.02;4.47;;;19.40;99.90;;;;;;5034888;28;20222;-69
2022/06/29 01:27:11;;;;;;;10.50;4.95;;;19.40;99.90;;;;;;5034781;28;20264;-69
2022/06/29 01:29:37;;;;;;;8.60;4.55;;;19.40;99.90;;;;;;5034771;28;20184;-69
2022/06/29 01:32:03;;;;;;;9.23;4.47;;;19.40;99.90;;;;;;5034967;28;20566;-69
2022/06/29 01:34:30;;;;;;;9.20;4.45;;;19.40;99.90;;;;;;5034792;28;20197;-68
2022/06/29 01:36:57;;;;;;;7.82;4.10;;;19.30;99.90;;;;;;5034877;28;20285;-69
2022/06/29 01:39:23;;;;;;;8.20;4.30;;;19.40;99.90;;;;;;5034581;28;20218;-69
2022/06/29 01:41:48;;;;;;;8.18;4.30;;;19.40;99.90;;;;;;5034598;28;20601;-69
2022/06/29 01:44:14;;;;;;;8.40;4.63;;;19.40;99.90;;;;;;5034109;28;20268;-69
2022/06/29 01:46:39;;;;;;;12.52;5.30;;;19.40;99.90;;;;;;5034583;28;20629;-69
2022/06/29 01:49:05;;;;;;;10.05;4.90;;;19.40;99.90;;;;;;5034451;28;20194;-69
2022/06/29 01:51:31;;;;;;;7.93;4.53;;;19.50;99.90;;;;;;5034696;28;20186;-69
2022/06/29 01:53:57;;;;;;;7.70;3.70;;;19.50;99.90;;;;;;5034560;28;20188;-69
2022/06/29 01:56:22;;;;;;;3.70;3.17;;;19.50;99.90;;;;;;5034351;28;20665;-69
2022/06/29 01:58:48;;;;;;;7.18;3.85;;;19.50;99.90;;;;;;5034022;28;20174;-69
2022/06/29 02:01:14;;;;;;;5.72;3.28;;;19.50;99.90;;;;;;5034249;28;20193;-69
2022/06/29 02:03:39;;;;;;;4.38;3.35;;;19.50;99.90;;;;;;5033187;28;20521;-69
2022/06/29 02:06:05;;;;;;;7.35;3.40;;;19.60;99.90;;;;;;5034248;28;20201;-69
2022/06/29 02:08:31;;;;;;;7.55;4.22;;;19.60;99.90;;;;;;5033829;28;20190;-69
2022/06/29 02:10:58;;;;;;;5.20;3.25;;;19.60;99.90;;;;;;5034173;28;20633;-69
2022/06/29 02:13:24;;;;;;;3.63;2.90;;;19.60;99.90;;;;;;5034173;28;20182;-69
2022/06/29 02:15:49;;;;;;;3.50;2.97;;;19.60;99.90;;;;;;5033487;28;20596;-69
2022/06/29 02:18:15;;;;;;;3.33;2.60;;;19.60;99.90;;;;;;5033970;28;20273;-69
2022/06/29 02:20:40;;;;;;;2.15;2.05;;;19.60;99.90;;;;;;5033872;28;20637;-69
2022/06/29 02:23:06;;;;;;;2.60;2.33;;;19.50;99.90;;;;;;5033660;28;20214;-69
2022/06/29 02:25:32;;;;;;;2.20;2.00;;;19.50;99.90;;;;;;5033827;28;20182;-69
2022/06/29 02:27:57;;;;;;;2.70;2.50;;;19.50;99.90;;;;;;5033629;28;20178;-69
2022/06/29 02:34:43;;;;;;;2.47;2.28;;;19.50;99.90;;;;;;5033632;28;20235;-69
2022/06/29 02:35:53;;;;;;;2.45;2.25;;;19.40;99.90;;;;;;5033583;28;20251;-69
2022/06/29 02:38:18;;;;;;;2.60;2.40;;;19.50;99.90;;;;;;5033338;28;20760;-69
2022/06/29 02:40:44;;;;;;;3.13;2.50;;;19.40;99.90;;;;;;5033501;28;20183;-69
2022/06/29 02:43:10;;;;;;;4.15;2.92;;;19.50;99.90;;;;;;5033526;28;20673;-69
2022/06/29 02:45:36;;;;;;;3.05;2.65;;;19.50;99.90;;;;;;5033464;28;20237;-69
2022/06/29 02:48:01;;;;;;;5.05;3.45;;;19.50;99.90;;;;;;5033248;28;20539;-69
2022/06/29 02:50:27;;;;;;;32.60;13.10;;;19.60;99.90;;;;;;5033212;28;20182;-69
2022/06/29 02:52:53;;;;;;;38.03;16.33;;;19.50;99.90;;;;;;5033500;28;20182;-69
2022/06/29 02:55:18;;;;;;;64.57;26.08;;;19.50;99.90;;;;;;5033265;28;20637;-69
2022/06/29 02:57:44;;;;;;;53.78;22.52;;;19.60;99.90;;;;;;5033112;28;20190;-69
2022/06/29 03:00:11;;;;;;;29.00;12.65;;;19.60;99.90;;;;;;5032974;28;20166;-69
2022/06/29 03:02:36;;;;;;;11.27;5.35;;;19.60;99.90;;;;;;5032924;28;20230;-69
2022/06/29 03:05:02;;;;;;;4.25;3.45;;;19.60;99.90;;;;;;5033210;28;20244;-69
2022/06/29 03:07:28;;;;;;;4.28;2.78;;;19.60;99.90;;;;;;5032829;28;20182;-69
2022/06/29 03:09:53;;;;;;;3.35;2.65;;;19.60;99.90;;;;;;5033009;28;20179;-69
2022/06/29 03:12:19;;;;;;;3.20;2.67;;;19.60;99.90;;;;;;5032999;28;20186;-69
2022/06/29 03:14:44;;;;;;;3.45;2.95;;;19.60;99.90;;;;;;5032354;28;20527;-69
2022/06/29 03:17:10;;;;;;;6.60;2.92;;;19.60;99.90;;;;;;5015277;28;20233;-69
2022/06/29 03:19:35;;;;;;;2.70;2.50;;;19.60;99.90;;;;;;5032662;28;20182;-69
2022/06/29 03:22:01;;;;;;;5.40;2.60;;;19.60;99.90;;;;;;5033081;28;20339;-69
2022/06/29 03:24:26;;;;;;;2.22;2.03;;;19.60;99.90;;;;;;5032181;28;20174;-69
2022/06/29 03:26:52;;;;;;;4.30;2.45;;;19.60;99.90;;;;;;5032655;28;20186;-69
2022/06/29 03:29:17;;;;;;;2.40;2.20;;;19.60;99.90;;;;;;5032614;28;20189;-69
2022/06/29 03:31:43;;;;;;;2.58;2.30;;;19.50;99.90;;;;;;5032520;28;20497;-69
2022/06/29 03:34:08;;;;;;;3.13;2.30;;;19.50;99.90;;;;;;5032593;28;20206;-69
2022/06/29 03:36:34;;;;;;;2.40;2.10;;;19.50;99.90;;;;;;5031003;28;20182;-70
2022/06/29 03:39:00;;;;;;;4.45;2.50;;;19.50;99.90;;;;;;5029623;28;20226;-70
2022/06/29 03:41:25;;;;;;;2.42;2.22;;;19.50;99.90;;;;;;5012724;28;20206;-69
2022/06/29 03:43:51;;;;;;;1.98;1.88;;;19.50;99.90;;;;;;5021639;28;20178;-69
2022/06/29 03:46:16;;;;;;;4.47;2.33;;;19.60;99.90;;;;;;5032669;28;20643;-70
2022/06/29 03:48:42;;;;;;;2.10;2.00;;;19.60;99.90;;;;;;5031965;28;20186;-72
2022/06/29 03:51:07;;;;;;;3.92;2.55;;;19.60;99.90;;;;;;5032366;28;20170;-67
2022/06/29 03:53:33;;;;;;;2.63;2.42;;;19.70;99.90;;;;;;5031946;28;20174;-67
2022/06/29 03:55:58;;;;;;;2.45;2.25;;;19.70;99.90;;;;;;5032463;28;20198;-70
2022/06/29 03:58:24;;;;;;;2.30;2.20;;;19.80;99.90;;;;;;5014519;28;20174;-69
2022/06/29 04:00:49;;;;;;;2.70;2.35;;;19.80;99.90;;;;;;5032284;28;20633;-70
2022/06/29 04:03:15;;;;;;;2.95;2.25;;;19.80;99.90;;;;;;5032222;28;20221;-70
2022/06/29 04:05:41;;;;;;;2.67;2.30;;;19.80;99.90;;;;;;5031978;28;20181;-70
2022/06/29 04:08:06;;;;;;;4.03;2.55;;;19.90;99.90;;;;;;5032413;28;20170;-69
2022/06/29 04:10:31;;;;;;;3.90;2.15;;;19.90;99.90;;;;;;5027243;28;20254;-70
2022/06/29 04:12:57;;;;;;;2.92;2.28;;;20.00;99.90;;;;;;5009534;28;20194;-70
2022/06/29 04:15:23;;;;;;;2.83;2.40;;;20.00;99.90;;;;;;5032095;28;20174;-70
2022/06/29 04:17:48;;;;;;;2.85;2.10;;;20.00;99.90;;;;;;5013623;28;20300;-70
2022/06/29 04:21:05;;;;;;;2.17;2.08;;;20.00;99.90;;;;;;5028283;28;20193;-69
2022/06/29 04:23:01;;;;;;;2.53;2.30;;;20.10;99.90;;;;;;5027322;28;20214;-69
2022/06/29 04:25:26;;;;;;;2.40;2.20;;;20.30;99.90;;;;;;5031548;28;20190;-69
2022/06/29 04:27:52;;;;;;;4.35;2.28;;;20.50;99.90;;;;;;5031070;28;20536;-69
2022/06/29 04:30:18;;;;;;;2.38;2.17;;;20.70;99.90;;;;;;5031902;28;20505;-69
2022/06/29 04:32:43;;;;;;;1.90;1.80;;;20.90;99.90;;;;;;5031696;28;20209;-69
2022/06/29 04:35:09;;;;;;;2.00;1.80;;;20.90;99.90;;;;;;5031845;28;20254;-69
2022/06/29 04:37:34;;;;;;;2.42;1.90;;;20.90;99.90;;;;;;5031625;28;20193;-69
2022/06/29 04:40:03;;;;;;;1.98;1.77;;;21.00;99.90;;;;;;5031910;28;20232;-69
2022/06/29 04:42:28;;;;;;;3.10;1.95;;;21.20;99.90;;;;;;5031573;28;20217;-69
2022/06/29 04:44:54;;;;;;;4.63;2.25;;;21.60;99.90;;;;;;5031694;28;20182;-69
2022/06/29 04:47:19;;;;;;;1.83;1.70;;;22.00;99.90;;;;;;5014278;28;20196;-69
2022/06/29 04:49:45;;;;;;;2.25;1.45;;;22.40;99.90;;;;;;5031867;28;20979;-69
2022/06/29 04:52:12;;;;;;;3.65;1.98;;;22.80;99.90;;;;;;5031651;28;20196;-69
2022/06/29 04:54:37;;;;;;;3.35;1.70;;;23.20;99.90;;;;;;5031761;28;20178;-69
2022/06/29 04:57:03;;;;;;;2.17;1.95;;;23.60;99.90;;;;;;5031759;28;20183;-69
2022/06/29 04:59:29;;;;;;;1.67;1.58;;;23.90;99.90;;;;;;5031637;28;20258;-69
2022/06/29 05:01:54;;;;;;;1.90;1.73;;;24.10;99.40;;;;;;5031541;28;20297;-69
2022/06/29 05:04:20;;;;;;;1.77;1.63;;;24.40;99.10;;;;;;5031678;28;20202;-69
2022/06/29 05:06:45;;;;;;;4.07;1.50;;;24.80;97.80;;;;;;5031651;28;20224;-69
2022/06/29 05:09:11;;;;;;;1.50;1.40;;;25.10;97.50;;;;;;5031661;28;20200;-69
2022/06/29 05:11:36;;;;;;;3.38;1.45;;;25.10;96.60;;;;;;5031514;28;20170;-70
2022/06/29 05:14:02;;;;;;;1.92;1.60;;;25.10;95.70;;;;;;5031723;28;20182;-70
2022/06/29 05:16:28;;;;;;;1.73;1.63;;;24.80;94.80;;;;;;5031412;28;20239;-70
2022/06/29 05:18:53;;;;;;;1.67;1.58;;;24.40;94.70;;;;;;5031708;28;20280;-70
2022/06/29 05:21:19;;;;;;;2.42;1.70;;;23.90;95.20;;;;;;5031335;28;20216;-70
2022/06/29 05:23:45;;;;;;;4.95;1.70;;;23.70;95.80;;;;;;5031567;28;20277;-70
2022/06/29 05:26:11;;;;;;;3.17;1.70;;;23.40;96.30;;;;;;5031441;28;20672;-70
2022/06/29 05:28:38;;;;;;;5.95;1.80;;;23.20;96.80;;;;;;5031406;28;20200;-70
2022/06/29 05:31:04;;;;;;;2.35;1.80;;;23.10;97.20;;;;;;5031454;28;20559;-70
2022/06/29 05:33:36;;;;;;;2.38;1.70;;;23.10;97.60;;;;;;5031185;28;20182;-71
2022/06/29 05:36:06;;;;;;;2.90;1.70;;;23.00;97.80;;;;;;5031367;28;20198;-70
2022/06/29 05:38:32;;;;;;;3.35;1.70;;;22.90;97.80;;;;;;5033031;28;20253;-70
2022/06/29 05:40:57;;;;;;;2.22;1.80;;;22.90;98.10;;;;;;5035217;28;20198;-70
2022/06/29 05:43:23;;;;;;;2.25;1.65;;;22.90;98.00;;;;;;5034918;28;20684;-70
2022/06/29 05:45:49;;;;;;;2.00;1.90;;;23.00;98.00;;;;;;5017085;28;20641;-70
2022/06/29 05:48:14;;;;;;;2.90;1.80;;;23.00;98.00;;;;;;5035004;28;20186;-70
2022/06/29 05:50:40;;;;;;;1.80;1.70;;;23.10;98.20;;;;;;5034898;28;20178;-70
2022/06/29 05:53:05;;;;;;;2.72;1.77;;;23.20;98.50;;;;;;5034862;28;20711;-70
2022/06/29 05:55:31;;;;;;;1.77;1.67;;;23.40;98.40;;;;;;5034859;28;20256;-70
2022/06/29 05:57:57;;;;;;;5.93;1.70;;;23.70;98.10;;;;;;5034777;28;20178;-69
2022/06/29 06:00:22;;;;;;;2.38;2.17;;;23.90;97.40;;;;;;5034699;28;20232;-69
2022/06/29 06:02:48;;;;;;;2.47;1.80;;;24.30;97.30;;;;;;5034506;28;20213;-69
2022/06/29 06:05:13;;;;;;;2.45;1.80;;;24.60;96.70;;;;;;5034597;28;20212;-68
2022/06/29 06:07:39;;;;;;;1.80;1.70;;;24.90;96.00;;;;;;5034511;28;20265;-69
2022/06/29 06:10:05;;;;;;;5.60;1.75;;;25.20;95.50;;;;;;5034647;28;20680;-69
2022/06/29 06:12:30;;;;;;;3.03;2.00;;;25.60;94.80;;;;;;5034307;28;20189;-69
2022/06/29 06:15:00;;;;;;;2.47;1.80;;;25.90;94.50;;;;;;5034530;28;20699;-69
2022/06/29 06:17:28;;;;;;;4.20;1.80;;;26.10;93.70;;;;;;5034404;28;20580;-68
2022/06/29 06:19:55;;;;;;;2.65;2.45;;;26.50;93.30;;;;;;5034442;28;20617;-68
2022/06/29 06:22:21;;;;;;;6.80;3.30;;;27.00;92.40;;;;;;5034207;28;20219;-69
2022/06/29 06:24:47;;;;;;;2.92;2.40;;;27.40;91.10;;;;;;5034326;28;20537;-69
2022/06/29 06:27:13;;;;;;;3.15;2.10;;;27.40;90.70;;;;;;5034229;28;20186;-69
2022/06/29 06:29:39;;;;;;;3.45;2.00;;;27.90;90.40;;;;;;5034248;28;20649;-69
2022/06/29 06:32:04;;;;;;;3.08;1.80;;;28.50;89.20;;;;;;5034174;28;20182;-69
2022/06/29 06:34:31;;;;;;;2.80;2.03;;;29.40;85.90;;;;;;5034042;28;20209;-69
2022/06/29 06:36:57;;;;;;;2.40;1.80;;;30.30;83.10;;;;;;5034098;28;20557;-69
2022/06/29 06:39:22;;;;;;;1.98;1.88;;;31.10;80.10;;;;;;5033693;28;20233;-69
2022/06/29 06:41:48;;;;;;;1.80;1.52;;;31.60;75.90;;;;;;5033898;28;20222;-68
2022/06/29 06:44:13;;;;;;;1.83;1.70;;;31.70;73.30;;;;;;5033993;28;20576;-69
2022/06/29 06:46:39;;;;;;;2.00;1.85;;;32.00;71.70;;;;;;5033838;28;20261;-69
2022/06/29 06:49:04;;;;;;;3.30;1.63;;;32.50;70.30;;;;;;5033546;28;20300;-69
2022/06/29 06:51:30;;;;;;;1.70;1.60;;;33.00;67.10;;;;;;5033395;28;20577;-69
2022/06/29 06:53:55;;;;;;;2.83;1.80;;;33.30;65.70;;;;;;5033933;28;20204;-69
2022/06/29 06:56:21;;;;;;;1.83;1.50;;;33.30;64.10;;;;;;5033717;28;20184;-69
2022/06/29 06:58:46;;;;;;;2.00;1.70;;;33.30;64.40;;;;;;5033745;28;20174;-69
2022/06/29 07:01:12;;;;;;;6.68;4.32;;;33.00;63.80;;;;;;5033527;28;20177;-69
2022/06/29 07:03:38;;;;;;;2.30;2.10;;;32.40;64.80;;;;;;5033609;28;20280;-69
2022/06/29 07:06:06;;;;;;;1.75;1.65;;;31.80;65.20;;;;;;5033664;28;20212;-69
2022/06/29 07:08:33;;;;;;;1.85;1.73;;;31.20;67.20;;;;;;5033533;28;20697;-69
2022/06/29 07:11:00;;;;;;;1.80;1.70;;;30.60;69.80;;;;;;5033438;28;20204;-69
2022/06/29 07:13:26;;;;;;;2.08;1.85;;;30.50;71.00;;;;;;5033347;28;20981;-69
2022/06/29 07:15:51;;;;;;;3.08;1.60;;;30.60;71.50;;;;;;5033400;28;20181;-69
2022/06/29 07:18:17;;;;;;;2.10;1.88;;;31.00;71.40;;;;;;5033442;28;20236;-69
2022/06/29 07:20:43;;;;;;;1.83;1.73;;;31.50;69.20;;;;;;5033342;28;20573;-69
2022/06/29 07:23:08;;;;;;;2.33;1.77;;;31.40;67.80;;;;;;5033020;28;20232;-69
2022/06/29 07:25:34;;;;;;;2.17;1.85;;;31.20;68.60;;;;;;5033206;28;20166;-69
2022/06/29 07:27:59;;;;;;;1.90;1.80;;;30.90;69.10;;;;;;5033265;28;20680;-69
2022/06/29 07:30:25;;;;;;;4.85;3.47;;;30.50;70.40;;;;;;5033067;28;20201;-69
2022/06/29 07:32:50;;;;;;;2.40;2.20;;;30.10;71.80;;;;;;5033076;28;20208;-69
2022/06/29 07:35:16;;;;;;;3.58;2.42;;;29.60;72.30;;;;;;5032988;28;20182;-69
2022/06/29 07:37:42;;;;;;;1.92;1.83;;;29.20;73.90;;;;;;5032714;28;20185;-69
2022/06/29 07:40:09;;;;;;;3.13;2.08;;;29.10;75.70;;;;;;5032956;28;20178;-69
2022/06/29 07:42:35;;;;;;;2.20;2.00;;;28.90;75.20;;;;;;5032645;28;20206;-70
2022/06/29 07:45:02;;;;;;;5.10;2.00;;;28.90;75.90;;;;;;5032972;28;20221;-69
2022/06/29 07:47:28;;;;;;;3.03;2.00;;;28.70;76.00;;;;;;5032623;28;20277;-69
2022/06/29 07:49:54;;;;;;;2.97;2.00;;;28.60;76.70;;;;;;5032773;28;20688;-69
2022/06/29 07:52:20;;;;;;;2.13;1.92;;;28.50;77.20;;;;;;5032761;28;20178;-69
2022/06/29 07:54:46;;;;;;;2.38;2.15;;;28.50;76.70;;;;;;5032574;28;20178;-69
2022/06/29 07:57:11;;;;;;;4.50;2.25;;;28.50;76.70;;;;;;5032706;28;20808;-69
2022/06/29 07:59:37;;;;;;;2.03;1.83;;;29.00;77.50;;;;;;5032483;28;20174;-69
2022/06/29 08:02:03;;;;;;;2.40;2.20;;;29.60;76.80;;;;;;5031825;28;20213;-69
2022/06/29 08:04:28;;;;;;;2.55;2.08;;;30.20;72.50;;;;;;5032219;28;20204;-69
2022/06/29 08:06:54;;;;;;;4.78;2.20;;;30.80;71.40;;;;;;5032426;28;20629;-69
2022/06/29 08:09:19;;;;;;;1.90;1.80;;;31.60;71.50;;;;;;5032438;28;20249;-69
2022/06/29 08:11:45;;;;;;;2.00;1.90;;;32.50;69.10;;;;;;5032637;28;20185;-69
2022/06/29 08:14:10;;;;;;;3.03;2.20;;;33.30;66.30;;;;;;5032400;28;20180;-69
2022/06/29 08:16:36;;;;;;;2.95;2.10;;;33.90;64.20;;;;;;5032114;28;20656;-69
2022/06/29 08:19:02;;;;;;;2.55;1.92;;;33.70;62.40;;;;;;5032301;28;20178;-69
2022/06/29 08:21:27;;;;;;;6.28;2.60;;;33.50;63.30;;;;;;5032232;28;20217;-69
2022/06/29 08:23:53;;;;;;;2.25;2.10;;;33.60;62.00;;;;;;5031986;28;20698;-69
2022/06/29 08:26:18;;;;;;;2.15;2.05;;;33.60;62.00;;;;;;5014446;28;20174;-68
2022/06/29 08:28:43;;;;;;;4.90;2.10;;;33.60;61.60;;;;;;5032124;28;20182;-69
2022/06/29 08:31:09;;;;;;;2.10;2.00;;;33.20;63.10;;;;;;5032087;28;20170;-69
2022/06/29 08:33:35;;;;;;;2.65;2.20;;;32.60;63.30;;;;;;5031916;28;20542;-69
2022/06/29 08:36:00;;;;;;;2.25;2.05;;;32.40;63.70;;;;;;5032235;28;20240;-69
2022/06/29 08:38:26;;;;;;;2.50;2.10;;;32.50;64.80;;;;;;5031728;28;20587;-69
2022/06/29 08:40:53;;;;;;;4.18;1.90;;;32.80;65.30;;;;;;5032057;28;20178;-68
2022/06/29 08:43:20;;;;;;;2.65;2.03;;;32.60;64.70;;;;;;5031824;28;20214;-69
2022/06/29 08:45:48;;;;;;;4.35;2.10;;;32.40;64.60;;;;;;5031887;28;20170;-69
2022/06/29 08:48:14;;;;;;;2.25;1.98;;;32.60;64.50;;;;;;5031776;28;20193;-69
2022/06/29 08:50:50;;;;;;;3.50;2.50;;;32.80;63.90;;;;;;5031872;28;20671;-69
2022/06/29 08:53:16;;;;;;;3.38;2.38;;;32.60;62.00;;;;;;5031852;28;20166;-69
2022/06/29 08:55:43;;;;;;;2.70;1.80;;;32.30;63.80;;;;;;5031877;28;20530;-69
2022/06/29 08:58:17;;;;;;;4.43;2.38;;;32.20;63.10;;;;;;5031918;28;20176;-69
2022/06/29 09:00:42;;;;;;;2.75;1.90;;;31.90;64.00;;;;;;5031819;28;20274;-69
2022/06/29 09:03:10;;;;;;;2.30;2.10;;;31.60;63.20;;;;;;5031907;28;20684;-69
2022/06/29 09:05:36;;;;;;;2.85;2.30;;;31.30;65.50;;;;;;5031629;28;20175;-69
2022/06/29 09:08:02;;;;;;;2.58;2.10;;;30.80;66.70;;;;;;5031895;28;20194;-68
2022/06/29 09:10:29;;;;;;;4.20;2.38;;;30.40;68.10;;;;;;5031684;28;20182;-68
2022/06/29 09:12:57;;;;;;;5.60;2.25;;;29.80;70.50;;;;;;5032649;28;20337;-69
2022/06/29 09:15:40;;;;;;;3.72;2.40;;;29.50;71.70;;;;;;5035558;28;20224;-68
2022/06/29 09:18:25;;;;;;;2.15;1.95;;;29.20;72.90;;;;;;5035712;28;20188;-69
2022/06/29 09:21:03;;;;;;;2.45;2.20;;;29.10;75.20;;;;;;5035452;28;20166;-68
2022/06/29 09:23:29;;;;;;;4.32;2.17;;;29.40;73.10;;;;;;5035283;28;20637;-69
2022/06/29 09:25:55;;;;;;;3.30;2.40;;;29.50;74.10;;;;;;5035294;28;20170;-69
2022/06/29 09:28:23;;;;;;;3.08;2.28;;;29.60;74.40;;;;;;5035383;28;20278;-69
2022/06/29 09:30:52;;;;;;;2.58;2.38;;;29.50;73.60;;;;;;5035437;28;20178;-69
2022/06/29 09:33:19;;;;;;;3.85;2.50;;;29.70;73.30;;;;;;5035366;28;20210;-68
2022/06/29 09:36:07;;;;;;;2.50;2.30;;;29.90;73.40;;;;;;5035317;28;20178;-69
2022/06/29 09:38:32;;;;;;;5.03;2.60;;;29.90;73.40;;;;;;5034995;28;20218;-68
2022/06/29 09:41:02;;;;;;;2.70;2.50;;;29.80;73.90;;;;;;5035206;28;20174;-69
2022/06/29 09:43:34;;;;;;;3.72;2.50;;;29.80;74.20;;;;;;5034952;28;20241;-68
2022/06/29 09:46:01;;;;;;;4.53;2.70;;;29.70;72.50;;;;;;5035112;28;20170;-68
2022/06/29 09:48:28;;;;;;;2.33;2.22;;;29.50;72.40;;;;;;5034867;28;20189;-69
2022/06/29 09:50:55;;;;;;;2.53;2.33;;;29.40;73.10;;;;;;5034902;28;20240;-68
2022/06/29 09:53:37;;;;;;;3.10;2.80;;;29.40;73.10;;;;;;5034873;28;20179;-69
2022/06/29 09:56:04;;;;;;;5.43;2.40;;;29.70;74.70;;;;;;5034928;28;20182;-69
2022/06/29 09:58:49;;;;;;;3.80;2.17;;;30.50;72.30;;;;;;5034730;28;20580;-69
2022/06/29 10:04:01;;;;;;;3.85;2.78;;;31.40;68.20;;;;;;5035086;28;20202;-68
2022/06/29 10:06:28;;;;;;;3.92;2.80;;;31.30;69.20;;;;;;5034586;28;20257;-68
2022/06/29 10:08:55;;;;;;;2.47;2.28;;;31.00;69.10;;;;;;5034590;28;20594;-67
2022/06/29 10:15:24;;;;;;;4.72;3.00;;;31.00;69.90;;;;;;5034780;28;20186;-68
2022/06/29 10:17:54;;;;;;;3.35;2.53;;;30.80;70.70;;;;;;5034563;28;20720;-68
2022/06/29 10:20:42;;;;;;;2.90;2.58;;;30.60;70.80;;;;;;5034516;28;20174;-68
2022/06/29 10:23:08;;;;;;;2.55;2.35;;;30.60;71.20;;;;;;5034355;28;20206;-68
2022/06/29 10:25:35;;;;;;;4.15;2.15;;;31.10;71.80;;;;;;5033166;28;20185;-68
2022/06/29 10:28:09;;;;;;;4.70;2.50;;;31.70;69.90;;;;;;5034425;28;20546;-69
2022/06/29 10:30:35;;;;;;;3.72;2.50;;;32.30;68.80;;;;;;5034032;28;20260;-68
2022/06/29 10:33:29;;;;;;;6.50;2.47;;;32.60;67.00;;;;;;5034115;28;20653;-68
2022/06/29 10:36:00;;;;;;;2.50;2.30;;;33.00;67.80;;;;;;5034016;28;20680;-67
2022/06/29 10:38:27;;;;;;;2.50;2.30;;;33.10;64.70;;;;;;5033869;28;20265;-68
2022/06/29 10:43:07;;;;;;;2.85;2.05;;;33.30;63.20;;;;;;5016206;28;20192;-68
2022/06/29 10:43:58;;;;;;;2.60;2.40;;;33.60;65.30;;;;;;5033964;28;20602;-68
2022/06/29 10:46:24;;;;;;;2.63;1.88;;;33.60;62.20;;;;;;5033992;28;20182;-68
2022/06/29 10:49:19;;;;;;;3.17;2.10;;;33.40;62.80;;;;;;5033968;28;20174;-68
2022/06/29 10:51:47;;;;;;;4.53;2.30;;;32.90;61.40;;;;;;5033976;28;20261;-69
2022/06/29 10:54:27;;;;;;;3.28;2.53;;;32.70;62.70;;;;;;5033752;28;20185;-68
2022/06/29 10:56:53;;;;;;;3.00;2.20;;;32.70;63.50;;;;;;5033811;28;20200;-68
2022/06/29 10:59:34;;;;;;;4.20;2.47;;;32.90;63.30;;;;;;5033614;28;20170;-68
2022/06/29 11:02:10;;;;;;;5.75;2.70;;;33.30;61.80;;;;;;5033668;28;20672;-68
2022/06/29 11:04:36;;;;;;;3.35;2.40;;;33.60;61.30;;;;;;5033430;28;20185;-69
2022/06/29 11:12:49;;;;;;;4.03;2.83;;;32.50;63.30;;;;;;5033695;28;20735;-69
2022/06/29 11:15:39;;;;;;;5.10;3.00;;;31.70;65.80;;;;;;5033334;28;20303;-68
2022/06/29 11:18:06;;;;;;;2.65;2.45;;;31.00;67.10;;;;;;5033516;28;20175;-68
2022/06/29 11:20:31;;;;;;;2.90;2.67;;;30.50;70.40;;;;;;5033197;28;20182;-69
2022/06/29 11:22:58;;;;;;;4.95;2.80;;;30.50;71.20;;;;;;5033112;28;20630;-69
2022/06/29 11:25:24;;;;;;;3.63;3.05;;;30.30;73.10;;;;;;5033234;28;20537;-68
2022/06/29 11:27:50;;;;;;;3.17;2.88;;;29.90;73.40;;;;;;5033227;28;20175;-69
2022/06/29 11:30:22;;;;;;;3.22;2.78;;;29.60;74.30;;;;;;5033063;28;20185;-68
2022/06/29 11:32:49;;;;;;;4.93;3.63;;;29.40;74.30;;;;;;5033142;28;20277;-69
2022/06/29 11:35:18;;;;;;;3.80;3.03;;;29.40;75.30;;;;;;5032850;28;20175;-68
2022/06/29 11:37:57;;;;;;;3.60;3.30;;;29.40;75.40;;;;;;5032724;28;20189;-68
2022/06/29 11:40:34;;;;;;;3.00;2.70;;;29.40;76.40;;;;;;5032946;28;20217;-69
2022/06/29 11:43:10;;;;;;;2.95;2.65;;;29.50;75.80;;;;;;5032855;28;20225;-69
2022/06/29 11:45:45;;;;;;;3.35;2.63;;;29.80;75.50;;;;;;5032671;28;20177;-69
2022/06/29 11:48:17;;;;;;;5.13;2.70;;;30.10;75.20;;;;;;5032827;28;20514;-69
2022/06/29 11:50:51;;;;;;;4.00;3.28;;;30.40;72.90;;;;;;5032803;28;20183;-68
2022/06/29 11:53:36;;;;;;;4.25;2.92;;;30.60;70.80;;;;;;5032465;28;20676;-69
2022/06/29 11:56:06;;;;;;;6.10;2.75;;;30.60;71.60;;;;;;5032645;28;20177;-69
2022/06/29 11:58:32;;;;;;;2.90;2.70;;;30.50;71.00;;;;;;5032556;28;20179;-68
2022/06/29 12:00:58;;;;;;;6.53;2.67;;;30.70;71.10;;;;;;5014850;28;20209;-68
2022/06/29 12:03:24;;;;;;;5.63;3.03;;;31.00;70.70;;;;;;5032369;28;20291;-69
2022/06/29 12:06:00;;;;;;;3.33;2.88;;;31.40;71.30;;;;;;5032455;28;20178;-68
2022/06/29 12:08:30;;;;;;;5.15;2.80;;;31.70;69.60;;;;;;5032317;28;20253;-68
2022/06/29 12:10:56;;;;;;;2.85;2.65;;;32.00;67.10;;;;;;5032406;28;20312;-68
2022/06/29 12:13:22;;;;;;;3.55;3.25;;;32.20;67.80;;;;;;5032150;28;20665;-68
2022/06/29 12:15:48;;;;;;;3.13;2.90;;;32.20;66.00;;;;;;5032301;28;20264;-68
2022/06/29 12:18:14;;;;;;;3.42;2.95;;;32.40;66.60;;;;;;5032220;28;20740;-68
2022/06/29 12:20:40;;;;;;;4.22;3.35;;;32.40;66.20;;;;;;5032151;28;20288;-68
2022/06/29 12:23:06;;;;;;;4.68;3.38;;;32.50;66.70;;;;;;5032176;28;20767;-68
2022/06/29 12:25:32;;;;;;;3.85;2.90;;;32.20;65.80;;;;;;5032204;28;20178;-68
2022/06/29 12:27:57;;;;;;;3.33;2.80;;;32.30;65.90;;;;;;5032035;28;20577;-68
2022/06/29 12:30:23;;;;;;;3.88;2.70;;;32.40;65.50;;;;;;5014394;28;20178;-68
2022/06/29 12:32:48;;;;;;;3.13;2.83;;;32.60;65.80;;;;;;5032003;28;20534;-69
2022/06/29 12:35:14;;;;;;;3.20;2.88;;;32.20;63.80;;;;;;5032027;28;20181;-68
2022/06/29 12:37:43;;;;;;;5.03;2.90;;;32.10;66.60;;;;;;5031772;28;20607;-68
2022/06/29 12:40:12;;;;;;;5.10;3.10;;;31.80;66.10;;;;;;5032085;28;20236;-68
2022/06/29 12:42:39;;;;;;;2.97;2.60;;;31.60;68.30;;;;;;5031772;28;20220;-68
2022/06/29 12:45:05;;;;;;;6.47;3.00;;;31.80;68.50;;;;;;5031958;28;20189;-68
2022/06/29 12:47:31;;;;;;;4.57;2.80;;;32.00;66.60;;;;;;5031282;28;20268;-69
2022/06/29 12:49:57;;;;;;;3.78;2.90;;;32.20;66.20;;;;;;5031804;28;20253;-68
2022/06/29 12:52:23;;;;;;;4.25;2.92;;;32.00;64.40;;;;;;5031881;28;20174;-68
2022/06/29 12:54:49;;;;;;;3.85;3.45;;;32.10;65.80;;;;;;5031944;28;20182;-69
2022/06/29 12:57:16;;;;;;;3.30;3.00;;;31.90;66.10;;;;;;5031750;28;20200;-68
2022/06/29 12:59:44;;;;;;;4.80;2.97;;;31.90;66.60;;;;;;5031906;28;20181;-68
2022/06/29 13:02:12;;;;;;;4.28;3.08;;;32.00;66.50;;;;;;5031666;28;20206;-68